Decoded Metar for LFLP (ANNECY in FRANCE) (IATA:NCY) | Meteo·Mobile Aviation Weather
aviador You're here:

LFLP Decoded Metar

ANNECY in FRANCE
Report Time2019-07-16 10:00:00
UTC Time2019-07-16 10:14:20
Flight Rules vfr VFR
WindVRB at 04 kt
Visibility9999 m
Phenomena:N/A
Clouds:Few 037 Hf
Expected CloudBase > 4,400 ft AGL from Temp-Dew spread
CeilingNone
Temp24°C (ISA +12)
Dew Point13°C (50% RH)
AAT23.5°C
QNH1017 hPa
Density Alt2,979 ft
Elevation1,519 ft
Report Wrong Elevation
Raw Report
METAR LFLP 161000Z AUTO VRB04KT 9999 FEW037 24/13 Q1017 NOSIG=

Extra information for LFLP:More info

Metar Taf Metar & Taf Last 4 Metars F.Rules Stats Wind Profile Meteogram Temp Stats Airport Information Weather charts Add Link Nearby VenuesMetar ALERT Operation Metar Decoded Social comments